This is the latest recevied weather packets stored in our database for station/object KN4QD-13. If no packets are shown the sender has not sent any weather packets the latest 10 day(s).
| Time | Temp. | Humidity | Pressure | Rain* | Wind** | Luminosity | Snow |
|---|---|---|---|---|---|---|---|
| 1777141335 | 14.44° C | 91% | 1011.4 hPa | 0.25 mm | - | - | - |
| 1777140755 | 15° C | 90% | 1011.3 hPa | 0.25 mm | - | - | - |
| 1777138335 | 14.44° C | 89% | 1011.5 hPa | 0 mm | - | - | - |
| 1777129937 | 16.11° C | 83% | 1011.8 hPa | 0 mm | - | - | - |
| 1777129337 | 16.11° C | 85% | 1012 hPa | 0 mm | - | - | - |
| 1777126937 | 15.56° C | 80% | 1012 hPa | 0 mm | - | - | - |
| 1777123937 | 15.56° C | 80% | 1012.3 hPa | 0 mm | - | - | - |
| 1777114356 | 11.67° C | 88% | 1011.1 hPa | 0 mm | - | - | - |
| 1777110736 | 11.67° C | 87% | 1011.2 hPa | 0 mm | - | - | - |
| 1777110136 | 11.67° C | 86% | 1011.3 hPa | 0 mm | - | - | - |
| 1777105336 | 11.67° C | 87% | 1011.8 hPa | 0 mm | - | - | - |
| 1777103536 | 12.22° C | 84% | 1011.8 hPa | 0 mm | - | - | - |
| 1777101756 | 12.78° C | 82% | 1012.2 hPa | 0 mm | - | - | - |
| 1777098136 | 13.33° C | 80% | 1012.8 hPa | 0 mm | - | - | - |
| 1777095136 | 14.44° C | 76% | 1013 hPa | 0 mm | - | - | - |
| 1777093936 | 14.44° C | 75% | 1013.3 hPa | 0 mm | - | - | - |
| 1777093336 | 15° C | 73% | 1013.6 hPa | 0 mm | - | - | - |
| 1777090936 | 15° C | 73% | 1013.6 hPa | 0 mm | - | - | - |
| 1777089736 | 15.56° C | 72% | 1013.6 hPa | 0 mm | - | - | - |
| 1777087976 | 15.56° C | 70% | 1013.4 hPa | 0 mm | - | - | - |
| 1777084936 | 15.56° C | 71% | 1013.1 hPa | 0 mm | - | - | - |
| 1777081936 | 16.11° C | 67% | 1012.8 hPa | 0 mm | - | - | - |
| 1777079536 | 16.67° C | 64% | 1012 hPa | 0 mm | - | - | - |
| 1777074756 | 17.22° C | 60% | 1011.1 hPa | 0 mm | - | - | - |
| 1777067536 | 20° C | 52% | 1011.7 hPa | 0 mm | - | - | - |
* Rain latest hour (hover to see other rain measurements)
** Current wind speed in m/s (hover to see current wind gust speed)